Time;durP1;ratioP1;P1;durP2;ratioP2;P2;SDS_P1;SDS_P2;PMS_P1;PMS_P2;Temp;Humidity;BMP_temperature;BMP_pressure;BME280_temperature;BME280_humidity;BME280_pressure;Samples;Min_cycle;Max_cycle;Signal;HPM_P1;HPM_P2
2021/08/25 00:00:10;;;;;;;2.97;1.53;;;6.20;99.90;;;;;;4836508;28;20203;-75
2021/08/25 00:02:36;;;;;;;0.40;0.40;;;;;;;;;;4834628;28;20227;-76
2021/08/25 00:04:59;;;;;;;0.40;0.40;;;;;;;;;;4836592;28;20183;-74
2021/08/25 00:07:22;;;;;;;0.40;0.40;;;;;;;;;;4836490;28;20190;-74
2021/08/25 00:09:45;;;;;;;0.33;0.33;;;;;;;;;;4904926;28;20212;-74
2021/08/25 00:12:10;;;;;;;0.50;0.50;;;6.10;99.90;;;;;;4920138;28;20789;-75
2021/08/25 00:14:33;;;;;;;0.30;0.30;;;;;;;;;;4836837;28;20179;-74
2021/08/25 00:16:56;;;;;;;0.40;0.40;;;6.30;99.90;;;;;;4836863;28;20191;-74
2021/08/25 00:19:19;;;;;;;0.50;0.50;;;;;;;;;;4836313;28;20842;-74
2021/08/25 00:21:42;;;;;;;0.30;0.30;;;;;;;;;;4836358;28;20283;-75
2021/08/25 00:24:05;;;;;;;0.30;0.30;;;6.30;99.90;;;;;;4836303;28;20176;-75
2021/08/25 00:26:28;;;;;;;0.20;0.20;;;;;;;;;;4836501;28;20210;-74
2021/08/25 00:28:53;;;;;;;0.40;0.40;;;6.40;99.90;;;;;;4836569;28;20905;-74
2021/08/25 00:31:15;;;;;;;0.30;0.30;;;;;;;;;;4836030;28;20194;-74
2021/08/25 00:33:39;;;;;;;0.20;0.20;;;6.50;99.90;;;;;;4836645;28;20187;-78
2021/08/25 00:36:02;;;;;;;0.30;0.30;;;;;;;;;;4904406;28;20195;-74
2021/08/25 00:38:25;;;;;;;0.30;0.30;;;;;;;;;;4903322;28;20200;-78
2021/08/25 00:40:47;;;;;;;0.30;0.30;;;;;;;;;;4836099;28;20331;-74
2021/08/25 00:43:11;;;;;;;0.30;0.30;;;6.40;99.90;;;;;;4835620;28;20191;-76
2021/08/25 00:45:35;;;;;;;0.20;0.20;;;6.40;99.90;;;;;;4904232;28;20180;-74
2021/08/25 00:47:58;;;;;;;0.30;0.30;;;;;;;;;;4836164;28;20195;-74
2021/08/25 00:50:21;;;;;;;0.20;0.20;;;6.50;99.90;;;;;;4835980;28;20350;-77
2021/08/25 00:52:44;;;;;;;0.20;0.20;;;;;;;;;;4836072;28;20239;-76
2021/08/25 00:55:07;;;;;;;0.20;0.20;;;6.60;99.90;;;;;;4833310;28;20243;-78
2021/08/25 00:57:30;;;;;;;0.30;0.30;;;;;;;;;;4836030;28;20649;-75
2021/08/25 00:59:53;;;;;;;0.20;0.20;;;;;;;;;;4836174;28;20195;-74
2021/08/25 01:02:24;;;;;;;0.30;0.30;;;6.80;99.90;;;;;;4832819;28;20238;-75
2021/08/25 01:04:52;;;;;;;0.30;0.30;;;6.90;99.90;;;;;;4836305;28;20586;-74
2021/08/25 01:07:17;;;;;;;0.30;0.30;;;7.00;99.90;;;;;;4836024;28;20191;-77
2021/08/25 01:09:42;;;;;;;0.20;0.20;;;;;;;;;;4831250;28;20263;-75
2021/08/25 01:12:05;;;;;;;0.20;0.20;;;6.90;99.90;;;;;;4835929;28;20602;-74
2021/08/25 01:14:29;;;;;;;0.20;0.20;;;7.10;99.90;;;;;;4828325;28;20243;-75
2021/08/25 01:16:53;;;;;;;0.20;0.20;;;7.20;99.90;;;;;;4835288;28;20334;-76
2021/08/25 01:19:17;;;;;;;0.37;0.37;;;7.30;99.90;;;;;;4835413;28;20617;-74
2021/08/25 01:21:41;;;;;;;0.30;0.30;;;7.30;99.90;;;;;;4835698;28;20322;-85
2021/08/25 01:24:05;;;;;;;0.27;0.27;;;7.40;99.90;;;;;;4835741;28;20851;-83
2021/08/25 01:26:28;;;;;;;0.20;0.20;;;;;;;;;;4828058;28;20244;-76
2021/08/25 01:28:53;;;;;;;0.40;0.40;;;7.40;99.90;;;;;;4835943;28;20243;-74
2021/08/25 01:31:18;;;;;;;0.30;0.30;;;7.40;99.90;;;;;;4837020;28;20198;-89
2021/08/25 01:33:41;;;;;;;0.23;0.23;;;;;;;;;;4906263;28;20204;-87
2021/08/25 01:36:04;;;;;;;0.27;0.27;;;;;;;;;;4840043;28;20183;-91
2021/08/25 01:38:41;;;;;;;0.20;0.20;;;7.50;99.90;;;;;;4840200;28;20652;-91
2021/08/25 01:41:04;;;;;;;0.20;0.20;;;;;;;;;;4905902;28;20227;-88
2021/08/25 01:43:27;;;;;;;0.20;0.20;;;;;;;;;;4922034;28;20207;-91
2021/08/25 01:45:50;;;;;;;0.20;0.20;;;;;;;;;;4837575;28;20187;-90
2021/08/25 01:48:13;;;;;;;0.37;0.37;;;7.70;99.90;;;;;;4837303;28;20244;-87
2021/08/25 01:50:36;;;;;;;0.20;0.20;;;;;;;;;;4823164;28;20236;-91
2021/08/25 01:52:59;;;;;;;0.10;0.10;;;;;;;;;;4905173;28;20199;-91
2021/08/25 01:55:22;;;;;;;0.20;0.20;;;;;;;;;;4921488;28;20229;-90
2021/08/25 01:57:45;;;;;;;0.20;0.20;;;7.90;99.90;;;;;;4837637;28;20190;-91
2021/08/25 02:00:09;;;;;;;0.20;0.20;;;7.80;99.90;;;;;;4837572;28;20587;-93
2021/08/25 02:02:32;;;;;;;0.23;0.23;;;;;;;;;;4836511;28;20259;-86
2021/08/25 02:04:56;;;;;;;0.20;0.20;;;7.90;99.90;;;;;;4837467;28;20199;-92
2021/08/25 02:07:19;;;;;;;0.20;0.20;;;;;;;;;;4837004;28;20215;-88
2021/08/25 02:09:41;;;;;;;0.20;0.20;;;;;;;;;;4838346;28;20264;-86
2021/08/25 02:12:04;;;;;;;0.33;0.33;;;8.20;99.90;;;;;;4837484;28;20191;-87
2021/08/25 02:14:27;;;;;;;0.20;0.20;;;;;;;;;;4921049;28;20195;-91
2021/08/25 02:16:50;;;;;;;0.20;0.20;;;;;;;;;;4907869;28;20658;-91
2021/08/25 02:19:13;;;;;;;0.30;0.30;;;;;;;;;;4839628;28;20194;-90
2021/08/25 02:21:36;;;;;;;0.37;0.37;;;8.30;99.90;;;;;;4845234;28;20202;-92
2021/08/25 02:23:59;;;;;;;0.20;0.20;;;;;;;;;;4842619;28;20183;-92
2021/08/25 02:26:22;;;;;;;0.20;0.20;;;;;;;;;;4838503;28;20239;-92
2021/08/25 02:28:45;;;;;;;0.40;0.40;;;8.40;99.90;;;;;;4837383;28;20182;-91
2021/08/25 02:31:08;;;;;;;0.27;0.27;;;;;;;;;;4836140;28;20187;-90
2021/08/25 02:33:31;;;;;;;0.20;0.20;;;;;;;;;;4839513;28;20583;-92
2021/08/25 02:35:53;;;;;;;0.10;0.10;;;;;;;;;;4838014;28;20190;-82
2021/08/25 02:38:17;;;;;;;0.20;0.20;;;8.50;99.90;;;;;;4837535;28;20593;-81
2021/08/25 02:40:41;;;;;;;0.20;0.20;;;8.50;99.90;;;;;;4835327;28;20209;-91
2021/08/25 02:43:04;;;;;;;0.17;0.17;;;;;;;;;;4840912;28;20240;-82
2021/08/25 02:45:26;;;;;;;0.30;0.30;;;;;;;;;;4838098;28;20194;-90
2021/08/25 02:47:49;;;;;;;0.30;0.30;;;8.70;99.90;;;;;;4838434;28;20187;-90
2021/08/25 02:50:12;;;;;;;0.20;0.20;;;;;;;;;;4839223;28;20187;-91
2021/08/25 02:52:35;;;;;;;0.20;0.20;;;;;;;;;;4837964;28;20703;-92
2021/08/25 02:54:58;;;;;;;0.20;0.20;;;8.80;99.90;;;;;;4838468;28;20252;-91
2021/08/25 02:57:21;;;;;;;0.30;0.30;;;;;;;;;;4836703;28;20224;-82
2021/08/25 02:59:44;;;;;;;0.27;0.27;;;;;;;;;;4838216;28;20195;-92
2021/08/25 03:02:07;;;;;;;0.30;0.30;;;8.90;99.90;;;;;;4833745;28;20243;-83
2021/08/25 03:04:29;;;;;;;0.17;0.17;;;;;;;;;;4828805;28;20179;-89
2021/08/25 03:06:52;;;;;;;0.30;0.30;;;;;;;;;;4836178;28;20248;-82
2021/08/25 03:09:15;;;;;;;0.30;0.30;;;8.80;99.90;;;;;;4835327;28;20251;-90
2021/08/25 03:11:39;;;;;;;0.20;0.20;;;8.90;99.90;;;;;;4835710;28;20264;-86
2021/08/25 03:14:01;;;;;;;0.20;0.20;;;;;;;;;;4835974;28;20203;-81
2021/08/25 03:16:24;;;;;;;0.23;0.23;;;;;;;;;;4836167;28;20247;-92
2021/08/25 03:18:47;;;;;;;0.30;0.30;;;;;;;;;;4835868;28;20240;-91
2021/08/25 03:21:09;;;;;;;0.27;0.27;;;;;;;;;;4835783;28;20671;-91
2021/08/25 03:23:32;;;;;;;0.30;0.30;;;;;;;;;;4835513;28;20226;-78
2021/08/25 03:25:55;;;;;;;0.30;0.30;;;;;;;;;;4902910;28;20192;-91
2021/08/25 03:28:19;;;;;;;0.30;0.30;;;9.10;99.90;;;;;;4834250;28;20701;-82
2021/08/25 03:30:42;;;;;;;0.20;0.20;;;;;;;;;;4834717;28;20703;-74
2021/08/25 03:33:06;;;;;;;0.20;0.20;;;9.10;99.90;;;;;;4835260;28;20187;-75
2021/08/25 03:35:28;;;;;;;0.30;0.30;;;;;;;;;;4836024;28;20186;-75
2021/08/25 03:37:51;;;;;;;0.30;0.30;;;;;;;;;;4837019;28;20195;-75
2021/08/25 03:40:14;;;;;;;0.50;0.50;;;;;;;;;;4836154;28;20190;-74
2021/08/25 03:42:37;;;;;;;0.30;0.30;;;;;;;;;;4836558;28;20668;-75
2021/08/25 03:45:01;;;;;;;0.30;0.30;;;9.40;99.90;;;;;;4837014;28;20199;-75
2021/08/25 03:47:23;;;;;;;0.30;0.30;;;;;;;;;;4836635;28;20244;-74
2021/08/25 03:49:46;;;;;;;0.27;0.27;;;;;;;;;;4836783;28;20187;-77
2021/08/25 03:52:09;;;;;;;0.27;0.27;;;;;;;;;;4836728;28;20191;-75
2021/08/25 03:54:32;;;;;;;0.30;0.30;;;;;;;;;;4836716;28;20183;-75
2021/08/25 03:56:54;;;;;;;0.20;0.20;;;;;;;;;;4836398;28;20258;-74
2021/08/25 03:59:17;;;;;;;0.30;0.30;;;;;;;;;;4836384;28;20243;-78
2021/08/25 04:01:41;;;;;;;0.20;0.20;;;9.50;99.90;;;;;;4834172;28;20276;-75
2021/08/25 04:04:06;;;;;;;0.23;0.23;;;;;;;;;;4836402;28;20240;-75
2021/08/25 04:06:29;;;;;;;0.30;0.30;;;;;;;;;;4832887;28;20191;-76
2021/08/25 04:08:51;;;;;;;0.30;0.30;;;;;;;;;;4904153;28;20226;-75
2021/08/25 04:11:19;;;;;;;0.30;0.30;;;9.70;99.90;;;;;;4835594;28;20714;-75
2021/08/25 04:13:42;;;;;;;0.20;0.20;;;;;;;;;;4836574;28;20232;-75
2021/08/25 04:16:05;;;;;;;0.33;0.33;;;;;;;;;;4836688;28;20240;-75
2021/08/25 04:18:30;;;;;;;0.30;0.30;;;9.80;99.90;;;;;;4835270;28;20194;-74
2021/08/25 04:20:53;;;;;;;0.20;0.20;;;;;;;;;;4836588;28;20194;-77
2021/08/25 04:23:15;;;;;;;0.30;0.30;;;;;;;;;;4835744;28;20275;-77
2021/08/25 04:25:38;;;;;;;0.20;0.20;;;;;;;;;;4836583;28;20187;-75
2021/08/25 04:28:01;;;;;;;0.20;0.20;;;;;;;;;;4836519;28;20252;-75
2021/08/25 04:30:23;;;;;;;0.07;0.07;;;10.00;99.90;;;;;;4836641;28;20220;-77
2021/08/25 04:32:46;;;;;;;0.10;0.10;;;;;;;;;;4903123;28;20204;-77
2021/08/25 04:35:10;;;;;;;0.30;0.30;;;9.70;99.90;;;;;;4837678;28;20186;-89
2021/08/25 04:37:33;;;;;;;0.00;0.00;;;;;;;;;;4838657;28;20236;-90
2021/08/25 04:39:56;;;;;;;0.10;0.10;;;;;;;;;;4906346;28;20188;-92
2021/08/25 04:42:19;;;;;;;0.10;0.10;;;;;;;;;;4922343;28;20215;-90
2021/08/25 04:44:41;;;;;;;0.10;0.10;;;;;;;;;;4838724;28;20753;-91
2021/08/25 04:47:04;;;;;;;0.20;0.20;;;;;;;;;;4839147;28;20630;-89
2021/08/25 04:49:27;;;;;;;0.20;0.20;;;;;;;;;;4838310;28;20183;-92
2021/08/25 04:51:51;;;;;;;0.70;0.70;;;10.20;99.90;;;;;;4824264;28;20191;-79
2021/08/25 04:54:14;;;;;;;0.23;0.23;;;;;;;;;;4834129;28;20198;-89
2021/08/25 04:56:36;;;;;;;0.20;0.20;;;;;;;;;;4834823;28;20195;-88
2021/08/25 04:58:59;;;;;;;0.20;0.20;;;;;;;;;;4837078;28;20182;-88
2021/08/25 05:01:22;;;;;;;0.30;0.30;;;;;;;;;;4833992;28;20619;-88
2021/08/25 05:03:44;;;;;;;0.20;0.20;;;;;;;;;;4836168;28;20206;-87
2021/08/25 05:06:08;;;;;;;0.10;0.10;;;10.50;99.90;;;;;;4920941;28;20199;-87
2021/08/25 05:08:32;;;;;;;0.17;0.17;;;10.60;99.90;;;;;;4837236;28;20653;-88
2021/08/25 05:10:55;;;;;;;0.30;0.30;;;;;;;;;;4836964;28;20207;-87
2021/08/25 05:13:18;;;;;;;0.30;0.30;;;;;;;;;;4836607;28;20228;-87
2021/08/25 05:15:43;;;;;;;0.30;0.30;;;10.80;30.30;;;;;;4819307;28;20241;-88
2021/08/25 05:18:06;;;;;;;0.20;0.20;;;;;;;;;;4902376;28;20188;-88
2021/08/25 05:20:29;;;;;;;0.27;0.27;;;;;;;;;;4902395;28;20673;-88
2021/08/25 05:22:52;;;;;;;0.10;0.10;;;;;;;;;;4818044;28;20238;-86
2021/08/25 05:25:15;;;;;;;0.20;0.20;;;11.00;31.70;;;;;;4817561;28;20187;-87
2021/08/25 05:27:38;;;;;;;0.10;0.10;;;;;;;;;;4902356;28;20222;-85
2021/08/25 05:30:01;;;;;;;0.20;0.20;;;;;;;;;;4901800;28;20661;-87
2021/08/25 05:32:24;;;;;;;0.30;0.30;;;;;;;;;;4817779;28;20192;-82
2021/08/25 05:34:46;;;;;;;0.30;0.30;;;11.20;32.30;;;;;;4832834;28;20709;-83
2021/08/25 05:37:09;;;;;;;0.30;0.30;;;;;;;;;;4897554;28;20200;-90
2021/08/25 05:39:32;;;;;;;0.20;0.20;;;11.60;34.30;;;;;;4828968;28;20194;-87
2021/08/25 05:41:56;;;;;;;0.20;0.20;;;11.60;35.30;;;;;;4897760;28;20196;-90
2021/08/25 05:44:18;;;;;;;0.20;0.20;;;;;;;;;;4826873;28;20210;-75
2021/08/25 05:46:41;;;;;;;0.20;0.20;;;;;;;;;;4836449;28;20255;-90
2021/08/25 05:49:04;;;;;;;0.10;0.10;;;;;;;;;;4907584;28;20188;-76
2021/08/25 05:51:27;;;;;;;0.13;0.13;;;;;;;;;;4904811;28;20241;-87
2021/08/25 05:53:51;;;;;;;0.20;0.20;;;;;;;;;;4836874;28;20263;-87
2021/08/25 05:56:14;;;;;;;0.20;0.20;;;;;;;;;;4835590;28;20187;-83
2021/08/25 05:58:41;;;;;;;0.40;0.40;;;12.20;41.00;;;;;;4835162;28;20235;-82
2021/08/25 06:01:04;;;;;;;0.10;0.10;;;;;;;;;;4901806;28;20744;-81
2021/08/25 06:03:27;;;;;;;0.30;0.30;;;;;;;;;;4884796;28;20622;-76
2021/08/25 06:05:54;;;;;;;0.23;0.23;;;12.50;42.20;;;;;;4834718;28;20240;-77
2021/08/25 06:08:16;;;;;;;0.10;0.10;;;;;;;;;;4833741;28;20244;-86
2021/08/25 06:10:39;;;;;;;0.33;0.33;;;;;;;;;;4832553;28;20211;-86
2021/08/25 06:13:02;;;;;;;0.30;0.30;;;;;;;;;;4903674;28;20199;-80
2021/08/25 06:15:26;;;;;;;0.40;0.40;;;12.60;43.40;;;;;;4901726;28;20619;-88
2021/08/25 06:17:48;;;;;;;1.37;0.97;;;;;;;;;;4835457;28;20240;-77
2021/08/25 06:20:12;;;;;;;4.00;1.40;;;12.80;44.40;;;;;;4894238;28;20609;-84
2021/08/25 06:22:38;;;;;;;7.10;1.53;;;;;;;;;;4834284;28;20218;-86
2021/08/25 06:25:02;;;;;;;10.83;1.70;;;;;;;;;;4835643;28;20219;-86
2021/08/25 06:27:25;;;;;;;84.00;67.77;;;;;;;;;;4834464;28;20194;-83
2021/08/25 06:29:47;;;;;;;208.20;109.60;;;;;;;;;;4834236;28;20235;-85
2021/08/25 06:32:11;;;;;;;13.43;1.90;;;13.30;44.40;;;;;;4834287;28;20199;-84
2021/08/25 06:34:34;;;;;;;9.07;1.50;;;;;;;;;;4901992;28;20239;-82
2021/08/25 06:36:57;;;;;;;9.03;1.37;;;;;;;;;;4901526;28;20746;-86
2021/08/25 06:39:20;;;;;;;21.67;2.97;;;;;;;;;;4834074;28;20199;-83
2021/08/25 06:41:43;;;;;;;9.23;1.43;;;;;;;;;;4834195;28;20279;-83
2021/08/25 06:44:06;;;;;;;4.53;0.77;;;;;;;;;;4834378;28;20251;-80
2021/08/25 06:46:29;;;;;;;8.73;1.23;;;;;;;;;;4826873;28;20592;-81
2021/08/25 06:48:52;;;;;;;11.50;1.60;;;13.90;47.00;;;;;;4833954;28;20671;-83
2021/08/25 06:51:15;;;;;;;206.93;91.53;;;;;;;;;;4833271;28;20190;-83
2021/08/25 06:53:38;;;;;;;11.83;1.63;;;;;;;;;;4834320;28;20589;-77
2021/08/25 06:56:01;;;;;;;12.77;1.97;;;;;;;;;;4826337;28;20249;-83
2021/08/25 06:58:27;;;;;;;14.70;2.07;;;;;;;;;;4814516;28;20192;-79
2021/08/25 07:00:49;;;;;;;40.53;5.50;;;;;;;;;;4813343;28;20206;-81
2021/08/25 07:03:12;;;;;;;17.23;2.17;;;;;;;;;;4832406;28;20234;-81
2021/08/25 07:05:36;;;;;;;9.63;1.30;;;13.70;47.00;;;;;;4834190;28;20183;-76
2021/08/25 07:08:00;;;;;;;18.17;8.00;;;;;;;;;;4834837;28;20191;-75
2021/08/25 07:10:23;;;;;;;164.07;95.73;;;;;;;;;;4834897;28;20210;-78
2021/08/25 07:12:46;;;;;;;4.17;1.00;;;;;;;;;;4836462;28;20191;-86
2021/08/25 07:15:15;;;;;;;4.60;1.30;;;13.60;47.60;;;;;;4837550;28;20316;-82
2021/08/25 07:17:38;;;;;;;14.50;3.73;;;;;;;;;;4835391;28;20206;-82
2021/08/25 07:20:00;;;;;;;3.03;0.90;;;;;;;;;;4836803;28;20216;-82
2021/08/25 07:22:24;;;;;;;8.20;2.10;;;13.60;47.20;;;;;;4835313;28;20219;-83
2021/08/25 07:24:47;;;;;;;3.70;1.07;;;;;;;;;;4888365;28;20261;-82
2021/08/25 07:27:11;;;;;;;5.30;1.43;;;;;;;;;;4836557;28;20214;-86
2021/08/25 07:29:33;;;;;;;2.80;0.80;;;;;;;;;;4832492;28;20183;-86
2021/08/25 07:31:56;;;;;;;3.27;1.17;;;;;;;;;;4837411;28;20191;-84
2021/08/25 07:34:19;;;;;;;5.27;1.70;;;;;;;;;;4835697;28;20195;-80
2021/08/25 07:36:41;;;;;;;2.33;0.83;;;;;;;;;;4837544;28;20671;-89
2021/08/25 07:39:07;;;;;;;5.17;1.60;;;14.20;48.00;;;;;;4837354;28;20660;-86
2021/08/25 07:41:29;;;;;;;2.47;0.87;;;;;;;;;;4903751;28;20222;-83
2021/08/25 07:43:52;;;;;;;1.47;0.70;;;;;;;;;;4837637;28;20222;-88
2021/08/25 07:46:15;;;;;;;4.93;1.67;;;;;;;;;;4842813;28;20179;-83
2021/08/25 07:48:38;;;;;;;3.37;1.20;;;;;;;;;;4904721;28;20184;-85
2021/08/25 07:51:01;;;;;;;1.37;0.53;;;;;;;;;;4905601;28;20200;-88
2021/08/25 07:53:24;;;;;;;3.00;1.03;;;;;;;;;;4851902;28;20193;-90
2021/08/25 07:55:48;;;;;;;0.90;0.40;;;15.00;49.00;;;;;;4837714;28;20202;-91
2021/08/25 07:58:11;;;;;;;5.10;1.73;;;;;;;;;;4836599;28;20232;-83
2021/08/25 08:00:34;;;;;;;19.40;6.23;;;;;;;;;;4833500;28;20247;-77
2021/08/25 08:02:56;;;;;;;2.93;1.10;;;;;;;;;;4836526;28;20283;-78
2021/08/25 08:05:19;;;;;;;3.80;1.30;;;;;;;;;;4920696;28;20268;-82
2021/08/25 08:07:43;;;;;;;4.57;1.57;;;;;;;;;;4904629;28;20200;-87
2021/08/25 08:10:06;;;;;;;3.20;1.07;;;16.10;50.10;;;;;;4836109;28;20215;-82
2021/08/25 08:12:30;;;;;;;3.90;1.40;;;16.50;50.40;;;;;;4827889;28;20191;-81
2021/08/25 08:14:53;;;;;;;2.67;1.00;;;;;;;;;;4836619;28;20228;-84
2021/08/25 08:17:16;;;;;;;5.30;1.50;;;;;;;;;;4834504;28;20644;-86
2021/08/25 08:19:39;;;;;;;2.80;0.90;;;;;;;;;;4835746;28;20720;-84
2021/08/25 08:22:03;;;;;;;7.10;1.93;;;17.00;52.50;;;;;;4834832;28;20238;-80
2021/08/25 08:24:26;;;;;;;3.03;0.80;;;;;;;;;;4833045;28;20510;-83
2021/08/25 08:26:49;;;;;;;3.43;0.97;;;;;;;;;;4902055;28;20731;-85
2021/08/25 08:29:13;;;;;;;6.13;1.73;;;17.00;52.70;;;;;;4902881;28;20191;-88
2021/08/25 08:31:36;;;;;;;4.50;1.33;;;;;;;;;;4835098;28;20186;-85
2021/08/25 08:33:59;;;;;;;2.67;0.90;;;;;;;;;;4834833;28;20198;-84
2021/08/25 08:36:21;;;;;;;6.80;1.87;;;;;;;;;;4834636;28;20428;-79
2021/08/25 08:38:44;;;;;;;3.67;1.13;;;;;;;;;;4832869;28;20202;-83
2021/08/25 08:41:07;;;;;;;3.70;1.07;;;16.80;52.90;;;;;;4903508;28;20203;-78
2021/08/25 08:43:31;;;;;;;4.30;1.27;;;16.70;53.80;;;;;;4835581;28;20850;-77
2021/08/25 08:45:54;;;;;;;3.60;1.17;;;17.00;53.90;;;;;;4903029;28;20234;-76
2021/08/25 08:48:17;;;;;;;5.97;1.67;;;;;;;;;;4834251;28;20199;-74
2021/08/25 08:50:41;;;;;;;3.90;1.10;;;17.70;54.80;;;;;;4835109;28;20187;-85
2021/08/25 08:53:04;;;;;;;3.60;0.90;;;;;;;;;;4834713;28;20187;-81
2021/08/25 08:55:27;;;;;;;6.60;1.33;;;;;;;;;;4896430;28;20253;-74
2021/08/25 08:57:50;;;;;;;11.67;1.97;;;;;;;;;;4833880;28;20672;-79
2021/08/25 09:00:14;;;;;;;11.40;1.93;;;19.10;56.30;;;;;;4834278;28;20625;-73
2021/08/25 09:02:43;;;;;;;10.90;1.70;;;19.10;56.30;;;;;;4832812;28;20630;-82
2021/08/25 09:05:19;;;;;;;7.23;1.07;;;20.10;56.20;;;;;;4832351;28;20580;-82
2021/08/25 09:07:48;;;;;;;20.67;2.90;;;19.60;56.70;;;;;;4911836;28;20225;-77
2021/08/25 09:10:11;;;;;;;16.90;2.40;;;;;;;;;;4834109;28;20203;-79
2021/08/25 09:12:34;;;;;;;10.60;1.40;;;;;;;;;;4834096;28;20195;-86
2021/08/25 09:14:56;;;;;;;7.87;1.00;;;;;;;;;;4836151;28;20187;-86
2021/08/25 09:17:30;;;;;;;21.83;2.57;;;21.60;58.00;;;;;;4918173;28;20208;-75
2021/08/25 09:20:12;;;;;;;107.43;58.10;;;21.80;58.10;;;;;;4834967;28;20187;-87
2021/08/25 09:22:36;;;;;;;11.43;1.53;;;;;;;;;;4906905;28;20221;-80
2021/08/25 09:24:58;;;;;;;12.60;1.70;;;;;;;;;;4817100;28;20225;-70
2021/08/25 09:27:22;;;;;;;22.23;3.10;;;;;;;;;;4832344;28;20727;-80
2021/08/25 09:29:56;;;;;;;13.03;1.93;;;20.80;58.00;;;;;;4833015;28;20684;-83
2021/08/25 09:32:19;;;;;;;11.60;1.77;;;20.50;57.60;;;;;;4901567;28;20270;-76
2021/08/25 09:34:42;;;;;;;11.00;1.73;;;;;;;;;;4901993;28;20245;-76
2021/08/25 09:37:07;;;;;;;10.83;1.67;;;20.00;57.50;;;;;;4850687;28;20256;-81
2021/08/25 09:39:30;;;;;;;7.33;1.20;;;;;;;;;;4833436;28;20224;-84
2021/08/25 09:41:56;;;;;;;7.13;1.20;;;19.60;57.00;;;;;;4834685;28;20255;-74
2021/08/25 09:44:19;;;;;;;8.70;1.47;;;;;;;;;;4834512;28;20636;-79
2021/08/25 09:46:50;;;;;;;10.80;1.77;;;19.70;57.20;;;;;;4902038;28;20618;-78
2021/08/25 09:49:14;;;;;;;19.30;2.90;;;19.80;57.30;;;;;;4833143;28;20195;-74
2021/08/25 09:51:38;;;;;;;14.37;2.20;;;20.30;57.60;;;;;;4899460;28;20239;-76
2021/08/25 09:54:07;;;;;;;9.87;1.50;;;22.40;58.60;;;;;;4834918;28;20238;-86
2021/08/25 09:56:32;;;;;;;9.00;1.40;;;25.00;52.20;;;;;;4833704;28;20216;-84
2021/08/25 09:58:56;;;;;;;11.47;1.70;;;27.70;46.50;;;;;;4832645;28;20249;-79
2021/08/25 10:01:19;;;;;;;201.33;133.50;;;30.40;48.10;;;;;;4896468;28;20271;-74
2021/08/25 10:03:42;;;;;;;434.17;268.17;;;;;;;;;;4832046;28;20220;-75
2021/08/25 10:06:05;;;;;;;447.70;290.57;;;;;;;;;;4834503;28;20450;-73
2021/08/25 10:08:28;;;;;;;447.47;294.87;;;;;;;;;;4900191;28;20265;-82
2021/08/25 10:10:52;;;;;;;459.00;297.30;;;35.60;51.00;;;;;;4827608;28;20202;-81
2021/08/25 10:13:15;;;;;;;462.60;307.80;;;;;;;;;;4832345;28;20247;-76
2021/08/25 10:15:40;;;;;;;448.53;296.43;;;;;;;;;;4900023;28;20269;-74
2021/08/25 10:18:25;;;;;;;403.90;307.67;;;36.50;51.30;;;;;;4830051;28;20187;-80
2021/08/25 10:20:48;;;;;;;439.97;321.03;;;;;;;;;;4821995;28;20171;-77
2021/08/25 10:23:10;;;;;;;452.03;325.93;;;;;;;;;;4832481;28;20268;-79
2021/08/25 10:25:35;;;;;;;316.40;286.53;;;;;;;;;;4834042;28;20186;-80
2021/08/25 10:28:04;;;;;;;262.70;241.80;;;31.40;49.70;;;;;;4832490;28;20601;-83
2021/08/25 10:30:27;;;;;;;177.43;165.43;;;;;;;;;;4834031;28;20261;-79
2021/08/25 10:33:10;;;;;;;187.77;173.83;;;28.50;48.60;;;;;;4833069;28;20238;-83
2021/08/25 10:35:34;;;;;;;151.40;140.33;;;27.40;48.10;;;;;;4832976;28;20214;-79
2021/08/25 10:38:17;;;;;;;125.63;116.87;;;27.30;48.10;;;;;;4833433;28;20224;-76
2021/08/25 10:40:40;;;;;;;184.93;168.93;;;;;;;;;;4832577;28;20599;-77
2021/08/25 10:43:04;;;;;;;237.60;216.67;;;31.80;49.50;;;;;;4918790;28;20198;-80
2021/08/25 10:46:01;;;;;;;282.83;257.40;;;34.10;50.50;;;;;;4835886;28;20691;-80
2021/08/25 10:48:46;;;;;;;294.02;265.60;;;36.60;51.50;;;;;;4827808;28;20247;-80
2021/08/25 10:51:40;;;;;;;361.10;309.73;;;38.00;52.00;;;;;;4838757;28;20238;-83
2021/08/25 10:54:04;;;;;;;325.45;300.10;;;39.00;52.40;;;;;;4830802;28;20730;-80
2021/08/25 10:56:52;;;;;;;369.23;342.90;;;40.00;53.20;;;;;;4866227;28;20234;-80
2021/08/25 10:59:20;;;;;;;416.15;378.67;;;41.10;99.90;;;;;;4836845;28;20182;-83
2021/08/25 11:01:45;;;;;;;417.13;380.23;;;41.40;99.90;;;;;;4889293;28;20223;-81
2021/08/25 11:04:11;;;;;;;466.65;414.90;;;42.00;99.90;;;;;;4818216;28;20191;-81
2021/08/25 11:06:44;;;;;;;479.17;401.48;;;40.70;99.90;;;;;;4816480;28;20602;-81
2021/08/25 11:09:14;;;;;;;420.63;382.80;;;39.50;30.10;;;;;;4817813;28;20214;-76
2021/08/25 11:11:37;;;;;;;320.65;299.13;;;;;;;;;;4834371;28;20194;-82
2021/08/25 11:14:00;;;;;;;206.25;193.25;;;;;;;;;;4835354;28;20212;-88
2021/08/25 11:16:27;;;;;;;180.27;167.32;;;33.60;99.90;;;;;;4835936;28;20264;-81
2021/08/25 11:18:53;;;;;;;174.60;164.20;;;;;;;;;;4836656;28;20236;-82
2021/08/25 11:21:15;;;;;;;267.05;248.13;;;;;;;;;;4837274;28;20247;-84
2021/08/25 11:23:52;;;;;;;299.55;276.42;;;37.50;30.10;;;;;;4836715;28;20641;-83
2021/08/25 11:26:15;;;;;;;338.98;311.92;;;;;;;;;;4902640;28;20229;-81
2021/08/25 11:28:38;;;;;;;337.67;314.23;;;41.00;30.90;;;;;;4835082;28;20236;-83
2021/08/25 11:31:01;;;;;;;384.65;356.55;;;;;;;;;;4836718;28;20186;-82
2021/08/25 11:33:26;;;;;;;387.75;359.05;;;43.40;31.60;;;;;;4836659;28;20190;-82
2021/08/25 11:35:49;;;;;;;415.30;384.00;;;;;;;;;;4837227;28;20259;-81
2021/08/25 11:38:15;;;;;;;407.58;372.80;;;44.60;32.30;;;;;;4902154;28;20975;-83
2021/08/25 11:40:39;;;;;;;431.00;393.15;;;44.60;32.80;;;;;;4837078;28;20243;-80
2021/08/25 11:43:06;;;;;;;447.60;405.80;;;44.30;33.00;;;;;;4836813;28;20597;-82
2021/08/25 11:45:32;;;;;;;413.48;380.75;;;;;;;;;;4836590;28;20675;-80
2021/08/25 11:47:56;;;;;;;441.33;399.50;;;43.90;33.50;;;;;;4830978;28;20248;-80
2021/08/25 11:50:23;;;;;;;454.92;416.60;;;44.90;33.70;;;;;;4833827;28;20220;-78
2021/08/25 11:52:45;;;;;;;436.48;400.88;;;;;;;;;;4901879;28;20196;-82
2021/08/25 11:55:10;;;;;;;393.77;366.05;;;46.00;34.20;;;;;;4833622;28;20186;-76
2021/08/25 11:57:45;;;;;;;336.33;311.05;;;46.30;34.40;;;;;;4834028;28;20226;-80
2021/08/25 12:00:08;;;;;;;286.45;270.55;;;44.70;34.10;;;;;;4835364;28;20190;-79
2021/08/25 12:02:54;;;;;;;187.75;177.05;;;46.70;34.80;;;;;;4829674;28;20256;-79
2021/08/25 12:05:23;;;;;;;281.42;263.63;;;47.20;35.10;;;;;;4832928;28;20187;-81
2021/08/25 12:08:01;;;;;;;312.10;292.27;;;47.60;35.40;;;;;;4835550;28;20677;-88
2021/08/25 12:10:25;;;;;;;352.42;328.75;;;47.70;35.60;;;;;;4835120;28;20240;-79
2021/08/25 12:12:48;;;;;;;348.90;327.17;;;;;;;;;;4836590;28;20269;-77
2021/08/25 12:15:11;;;;;;;389.05;358.90;;;48.50;36.20;;;;;;4835868;28;20190;-80
2021/08/25 12:17:34;;;;;;;447.52;402.77;;;;;;;;;;4835310;28;20259;-81
2021/08/25 12:20:01;;;;;;;51.08;45.97;;;45.60;36.30;;;;;;4904355;28;20750;-78
2021/08/25 12:22:26;;;;;;;46.78;21.98;;;42.60;36.10;;;;;;4835283;28;20238;-87
2021/08/25 12:24:49;;;;;;;10.18;1.33;;;;;;;;;;4836653;28;20198;-84
2021/08/25 12:27:12;;;;;;;29.05;3.58;;;;;;;;;;4836572;28;20194;-79
2021/08/25 12:29:35;;;;;;;18.98;2.38;;;;;;;;;;4835788;28;20190;-79
2021/08/25 12:31:58;;;;;;;20.77;2.65;;;41.30;36.30;;;;;;4835290;28;20659;-76
2021/08/25 12:34:21;;;;;;;29.00;3.40;;;;;;;;;;4835905;28;20183;-86
2021/08/25 12:36:55;;;;;;;10.65;1.40;;;36.60;35.70;;;;;;4905052;28;20327;-82
2021/08/25 12:39:22;;;;;;;17.95;2.25;;;36.50;35.50;;;;;;4830801;28;20545;-85
2021/08/25 12:41:46;;;;;;;18.48;2.38;;;38.30;35.60;;;;;;4837391;28;20620;-80
2021/08/25 12:44:09;;;;;;;7.85;1.00;;;40.50;35.90;;;;;;4817398;28;20207;-79
2021/08/25 12:46:32;;;;;;;5.18;0.70;;;;;;;;;;4837777;28;20198;-94
2021/08/25 12:48:55;;;;;;;5.68;0.80;;;;;;;;;;4840959;28;20190;-91
2021/08/25 12:51:19;;;;;;;14.30;1.75;;;45.10;37.10;;;;;;4907069;28;20649;-91
2021/08/25 12:53:42;;;;;;;7.22;1.00;;;;;;;;;;4834664;28;20601;-93
2021/08/25 12:56:06;;;;;;;14.00;1.77;;;47.40;37.50;;;;;;4839020;28;20224;-88
2021/08/25 12:58:28;;;;;;;4.88;0.65;;;;;;;;;;4905887;28;20211;-89
2021/08/25 13:00:51;;;;;;;29.20;3.70;;;;;;;;;;4835403;28;20247;-85
2021/08/25 13:03:14;;;;;;;23.35;3.10;;;;;;;;;;4836914;28;20339;-94
2021/08/25 13:05:37;;;;;;;14.20;1.95;;;;;;;;;;4823251;28;20187;-81
2021/08/25 13:08:00;;;;;;;10.18;1.40;;;;;;;;;;4816004;28;20312;-90
2021/08/25 13:10:23;;;;;;;28.45;3.47;;;;;;;;;;4816423;28;20195;-82
2021/08/25 13:12:47;;;;;;;14.80;1.85;;;39.30;37.60;;;;;;4819818;28;20237;-83
2021/08/25 13:15:10;;;;;;;7.97;1.00;;;36.50;37.10;;;;;;4834671;28;20194;-89
2021/08/25 13:17:33;;;;;;;26.70;3.28;;;;;;;;;;4819557;28;20215;-84
2021/08/25 13:19:56;;;;;;;11.55;1.50;;;;;;;;;;4822377;28;20226;-86
2021/08/25 13:22:19;;;;;;;19.60;2.38;;;;;;;;;;4819114;28;20704;-84
2021/08/25 13:24:41;;;;;;;19.10;2.42;;;;;;;;;;4817039;28;20192;-86
2021/08/25 13:27:04;;;;;;;10.13;1.35;;;;;;;;;;4827575;28;20725;-82